Time;durP1;ratioP1;P1;durP2;ratioP2;P2;SDS_P1;SDS_P2;PMS_P1;PMS_P2;Temp;Humidity;BMP_temperature;BMP_pressure;BME280_temperature;BME280_humidity;BME280_pressure;Samples;Min_cycle;Max_cycle;Signal;HPM_P1;HPM_P2
2022/10/05 01:11:51;;;;;;;3.35;2.78;;;;;8.30;94526.00;;;;7405669;19;20268;-83
2022/10/05 01:14:51;;;;;;;5.63;3.03;;;;;8.40;94531.00;;;;7411928;19;20153;-83
2022/10/05 01:18:03;;;;;;;4.73;2.70;;;;;8.30;94530.00;;;;7417510;19;20702;-85
2022/10/05 01:21:07;;;;;;;5.00;2.87;;;;;8.60;94527.00;;;;7418937;19;20129;-83
2022/10/05 01:24:16;;;;;;;3.23;2.40;;;;;8.90;94527.00;;;;7416240;19;20140;-84
2022/10/05 01:27:20;;;;;;;3.67;2.40;;;;;8.90;94527.00;;;;7416958;19;20144;-83
2022/10/05 01:30:17;;;;;;;2.67;2.27;;;;;9.20;94516.00;;;;7418292;19;20141;-85
2022/10/05 01:33:07;;;;;;;6.00;2.50;;;;;9.50;94513.00;;;;7416770;19;20157;-85
2022/10/05 01:36:10;;;;;;;3.87;2.20;;;;;9.90;94503.00;;;;7416369;19;20132;-85
2022/10/05 01:39:13;;;;;;;2.93;2.00;;;;;10.10;94510.00;;;;7415464;19;20150;-84
2022/10/05 01:42:25;;;;;;;2.57;2.00;;;;;10.10;94499.00;;;;7417580;19;20289;-83
2022/10/05 01:45:18;;;;;;;2.60;1.85;;;;;10.00;94508.00;;;;7415831;19;20137;-84
2022/10/05 01:48:06;;;;;;;2.10;1.90;;;;;10.00;94503.00;;;;7414158;19;20141;-85
2022/10/05 01:50:52;;;;;;;2.15;1.70;;;;;10.00;94496.00;;;;7414786;19;20157;-85
2022/10/05 01:53:33;;;;;;;3.60;2.03;;;;;10.00;94496.00;;;;7413431;19;20149;-85
2022/10/05 01:56:42;;;;;;;2.15;1.95;;;;;10.00;94492.00;;;;7411660;19;20464;-84
2022/10/05 01:59:33;;;;;;;3.50;2.10;;;;;10.00;94498.00;;;;7414499;19;20125;-85
2022/10/05 02:02:09;;;;;;;2.40;1.60;;;;;9.80;94483.00;;;;7416083;19;20141;-84
2022/10/05 02:05:09;;;;;;;1.60;1.50;;;;;9.80;94486.00;;;;7415320;19;20141;-86
2022/10/05 02:07:45;;;;;;;1.67;1.57;;;;;9.80;94482.00;;;;7414136;19;20137;-85
2022/10/05 02:10:52;;;;;;;2.45;1.70;;;;;9.40;94484.00;;;;7415766;19;20191;-85
2022/10/05 05:44:42;;;;;;;5.07;4.43;;;;;9.80;94477.00;;;;7420487;19;20188;-83
2022/10/05 05:47:36;;;;;;;6.45;4.45;;;;;9.90;94484.00;;;;7373560;19;20197;-82
2022/10/05 05:50:31;;;;;;;5.00;4.32;;;;;10.10;94489.00;;;;7426506;19;20148;-83
2022/10/05 05:53:22;;;;;;;7.97;4.85;;;;;10.00;94490.00;;;;7411679;19;20132;-80
2022/10/05 05:56:05;;;;;;;7.47;5.15;;;;;10.10;94494.00;;;;7423535;19;20454;-81
2022/10/05 05:59:01;;;;;;;8.38;4.38;;;;;10.10;94488.00;;;;7420954;19;20145;-82
2022/10/05 06:02:07;;;;;;;6.30;4.95;;;;;10.20;94490.00;;;;7419364;19;20157;-81
2022/10/05 06:04:59;;;;;;;5.47;4.55;;;;;10.50;94484.00;;;;7422655;19;20141;-80
2022/10/05 06:07:30;;;;;;;6.07;4.68;;;;;10.70;94493.00;;;;7430133;19;20141;-82
2022/10/05 06:10:28;;;;;;;6.80;4.75;;;;;10.90;94499.00;;;;7425895;19;20140;-83
2022/10/05 06:16:05;;;;;;;6.00;4.70;;;;;11.00;94497.00;;;;7415231;19;20186;-83
2022/10/05 06:18:44;;;;;;;10.60;4.55;;;;;11.00;94510.00;;;;7417644;19;20160;-80
2022/10/05 06:21:25;;;;;;;4.72;4.28;;;;;11.20;94510.00;;;;7404384;19;20145;-80
2022/10/05 06:24:35;;;;;;;4.40;4.00;;;;;11.50;94517.00;;;;7403384;19;20125;-80
2022/10/05 06:27:24;;;;;;;5.18;4.68;;;;;11.70;94511.00;;;;7407313;19;20172;-79
2022/10/05 06:33:05;;;;;;;5.25;3.85;;;;;12.00;94515.00;;;;7396507;19;20195;-80
2022/10/05 06:35:43;;;;;;;4.25;3.80;;;;;12.20;94520.00;;;;7426567;19;20139;-79
2022/10/05 06:38:54;;;;;;;4.03;3.63;;;;;12.50;94512.00;;;;7342931;19;20307;-78
2022/10/05 06:41:44;;;;;;;4.00;3.67;;;;;12.70;94520.00;;;;7409630;19;20156;-80
2022/10/05 06:44:42;;;;;;;3.40;3.10;;;;;13.00;94519.00;;;;7406284;19;20144;-79
2022/10/05 06:47:41;;;;;;;5.85;3.55;;;;;13.40;94535.00;;;;7419636;19;20156;-80
2022/10/05 06:50:31;;;;;;;3.75;2.88;;;;;13.50;94526.00;;;;7394010;19;20129;-79
2022/10/05 06:53:22;;;;;;;3.00;2.65;;;;;13.70;94524.00;;;;7394879;19;20216;-78
2022/10/05 06:56:12;;;;;;;4.10;2.65;;;;;13.90;94531.00;;;;7396030;19;20595;-79
2022/10/05 06:58:53;;;;;;;3.50;2.70;;;;;14.30;94530.00;;;;7393683;19;20169;-79
2022/10/05 07:01:43;;;;;;;2.60;2.40;;;;;14.40;94529.00;;;;7395173;19;20140;-78
2022/10/05 07:04:36;;;;;;;4.22;2.13;;;;;14.50;94534.00;;;;7392072;19;20141;-80
2022/10/05 07:07:30;;;;;;;3.78;1.90;;;;;14.80;94522.00;;;;7394884;19;20145;-79
2022/10/05 07:10:35;;;;;;;2.42;2.20;;;;;14.90;94530.00;;;;7395876;19;20148;-81
2022/10/05 07:13:34;;;;;;;4.88;1.98;;;;;15.00;94534.00;;;;7396770;19;20180;-81
2022/10/05 07:16:44;;;;;;;6.28;2.50;;;;;15.20;94521.00;;;;7409554;19;20243;-81
2022/10/05 07:19:24;;;;;;;3.08;2.80;;;;;15.40;94528.00;;;;7413722;19;20144;-80
2022/10/05 07:22:23;;;;;;;8.50;3.35;;;;;15.70;94535.00;;;;7413093;19;20176;-81
2022/10/05 07:25:09;;;;;;;2.50;2.15;;;;;15.90;94531.00;;;;7408163;19;20165;-80
2022/10/05 07:28:02;;;;;;;4.38;2.20;;;;;15.90;94528.00;;;;7403326;19;20147;-81
2022/10/05 07:30:38;;;;;;;2.40;2.20;;;;;16.00;94520.00;;;;7393236;19;20136;-80
2022/10/05 07:33:22;;;;;;;7.13;1.85;;;;;16.10;94532.00;;;;7391090;19;20141;-80
2022/10/05 07:39:43;;;;;;;3.20;1.98;;;;;16.20;94537.00;;;;7390757;19;20231;-80
2022/10/05 07:42:47;;;;;;;2.55;2.35;;;;;16.30;94536.00;;;;7389518;19;21277;-78
2022/10/05 07:45:37;;;;;;;4.00;2.10;;;;;16.50;94538.00;;;;7392219;19;20141;-83
2022/10/05 07:48:21;;;;;;;2.35;2.08;;;;;16.50;94533.00;;;;7387874;19;20172;-81
2022/10/05 07:51:05;;;;;;;2.78;2.42;;;;;16.90;94537.00;;;;7390107;19;20129;-81
2022/10/05 07:53:35;;;;;;;4.53;2.33;;;;;17.00;94543.00;;;;7390989;19;20212;-84
2022/10/05 07:56:20;;;;;;;9.60;2.38;;;;;17.20;94548.00;;;;7394221;19;20128;-81
2022/10/05 07:58:57;;;;;;;3.15;1.88;;;;;17.20;94540.00;;;;7397204;19;20141;-83
2022/10/05 08:01:35;;;;;;;4.57;2.40;;;;;17.60;94549.00;;;;7399349;19;20176;-80
2022/10/05 08:04:18;;;;;;;3.08;2.50;;;;;17.90;94540.00;;;;7394518;19;20640;-86
2022/10/05 08:06:56;;;;;;;3.42;2.05;;;;;17.90;94540.00;;;;7397845;19;20137;-85
2022/10/05 08:09:55;;;;;;;2.40;2.10;;;;;17.80;94544.00;;;;7395041;19;20145;-86
2022/10/05 08:12:48;;;;;;;3.55;2.22;;;;;18.00;94544.00;;;;7397332;19;20141;-86
2022/10/05 08:15:47;;;;;;;3.35;2.03;;;;;18.00;94546.00;;;;7396008;19;20148;-86
2022/10/05 08:18:42;;;;;;;3.88;2.00;;;;;17.90;94538.00;;;;7395773;19;20153;-84
2022/10/05 08:21:16;;;;;;;3.38;2.08;;;;;18.10;94537.00;;;;7397093;19;20581;-85
2022/10/05 08:24:03;;;;;;;2.72;2.25;;;;;18.30;94534.00;;;;7397312;19;20472;-84
2022/10/05 08:27:10;;;;;;;3.80;2.30;;;;;18.50;94542.00;;;;7396960;19;20124;-81
2022/10/05 08:30:00;;;;;;;2.42;2.10;;;;;18.30;94536.00;;;;7396071;19;20143;-79
2022/10/05 08:32:39;;;;;;;5.65;2.28;;;;;18.20;94542.00;;;;7395552;19;21018;-83
2022/10/05 08:35:46;;;;;;;4.35;1.80;;;;;18.20;94546.00;;;;7398710;19;20512;-85
2022/10/05 08:38:17;;;;;;;5.80;2.40;;;;;18.60;94539.00;;;;7394772;19;20145;-83
2022/10/05 08:41:36;;;;;;;2.15;1.90;;;;;18.50;94545.00;;;;7394373;19;20139;-85
2022/10/05 08:44:25;;;;;;;2.50;1.83;;;;;18.60;94545.00;;;;7393057;19;20641;-85
2022/10/05 08:47:19;;;;;;;3.25;1.77;;;;;19.00;94540.00;;;;7400194;19;20134;-83
2022/10/05 08:50:19;;;;;;;2.85;1.90;;;;;18.80;94541.00;;;;7397344;19;20497;-82
2022/10/05 08:53:11;;;;;;;2.45;2.10;;;;;19.00;94542.00;;;;7397486;19;20136;-81
2022/10/05 08:56:13;;;;;;;1.70;1.60;;;;;19.30;94542.00;;;;7397131;19;20161;-82
2022/10/05 08:59:51;;;;;;;4.53;1.90;;;;;19.60;94549.00;;;;7412142;19;20173;-86
2022/10/05 09:02:31;;;;;;;3.25;1.60;;;;;19.60;94547.00;;;;7393427;19;21082;-84
2022/10/05 09:05:56;;;;;;;4.07;1.70;;;;;19.30;94544.00;;;;7390228;19;20152;-82
2022/10/05 09:08:45;;;;;;;2.45;1.95;;;;;19.70;94544.00;;;;7394211;19;20212;-83
2022/10/05 09:11:44;;;;;;;1.88;1.77;;;;;19.60;94545.00;;;;7395634;19;20489;-82
2022/10/05 09:14:43;;;;;;;4.03;2.42;;;;;19.60;94538.00;;;;7394486;19;20595;-81
2022/10/05 09:18:09;;;;;;;4.22;2.10;;;;;19.40;94541.00;;;;7393394;19;20145;-82
2022/10/05 09:21:07;;;;;;;3.47;1.85;;;;;19.70;94541.00;;;;7392509;19;20129;-82
2022/10/05 09:23:43;;;;;;;2.08;1.88;;;;;19.80;94546.00;;;;7396181;19;20615;-82
2022/10/05 09:26:41;;;;;;;3.40;2.25;;;;;20.30;94545.00;;;;7391125;19;20204;-82
2022/10/05 09:29:19;;;;;;;2.08;1.73;;;;;20.40;94552.00;;;;7393862;19;20476;-80
2022/10/05 09:31:55;;;;;;;3.25;1.88;;;;;20.50;94541.00;;;;7394626;19;20152;-80
2022/10/05 09:34:50;;;;;;;1.90;1.80;;;;;20.40;94538.00;;;;7393470;19;20149;-83
2022/10/05 09:37:45;;;;;;;3.92;1.92;;;;;20.30;94541.00;;;;7393099;19;20216;-83
2022/10/05 09:40:48;;;;;;;2.08;1.88;;;;;20.70;94537.00;;;;7390120;19;20184;-79
2022/10/05 09:43:41;;;;;;;3.25;1.95;;;;;20.10;94537.00;;;;7395400;19;20141;-84
2022/10/05 09:46:38;;;;;;;2.50;2.30;;;;;20.60;94540.00;;;;7391815;19;20144;-82
2022/10/05 09:49:06;;;;;;;2.15;1.75;;;;;20.60;94534.00;;;;7395728;19;20138;-84
2022/10/05 09:52:13;;;;;;;3.05;2.10;;;;;21.10;94542.00;;;;7396138;19;20584;-84
2022/10/05 09:55:13;;;;;;;8.13;2.35;;;;;21.10;94540.00;;;;7392347;19;20220;-84
2022/10/05 09:58:22;;;;;;;5.40;1.88;;;;;21.10;94533.00;;;;7393021;19;20208;-83
2022/10/05 10:01:01;;;;;;;2.90;2.10;;;;;21.10;94526.00;;;;7392304;19;20140;-83
2022/10/05 10:04:08;;;;;;;3.00;1.80;;;;;21.40;94523.00;;;;7395184;19;20646;-84
2022/10/05 10:06:41;;;;;;;4.43;2.28;;;;;21.50;94523.00;;;;7390039;19;20568;-82
2022/10/05 10:09:26;;;;;;;2.67;2.15;;;;;21.90;94516.00;;;;7392614;19;20158;-83
2022/10/05 10:12:06;;;;;;;2.10;1.63;;;;;21.70;94516.00;;;;7396267;19;20142;-84
2022/10/05 10:14:50;;;;;;;3.10;1.90;;;;;21.60;94517.00;;;;7392120;19;20160;-84
2022/10/05 10:17:46;;;;;;;2.20;1.40;;;;;21.60;94512.00;;;;7390148;19;20235;-82
2022/10/05 10:20:53;;;;;;;2.30;1.88;;;;;21.20;94518.00;;;;7391345;19;20154;-80
2022/10/05 10:23:49;;;;;;;6.30;1.60;;;;;21.30;94516.00;;;;7393542;19;20148;-84
2022/10/05 10:26:31;;;;;;;1.80;1.50;;;;;21.30;94509.00;;;;7390839;19;20588;-81
2022/10/05 10:29:12;;;;;;;4.40;2.00;;;;;21.60;94506.00;;;;7391634;19;20129;-81
2022/10/05 10:31:58;;;;;;;2.08;1.70;;;;;21.80;94511.00;;;;7391954;19;20272;-81
2022/10/05 10:34:40;;;;;;;1.77;1.67;;;;;21.80;94514.00;;;;7390852;19;20144;-80
2022/10/05 10:37:38;;;;;;;2.95;2.00;;;;;21.90;94509.00;;;;7391015;19;20128;-81
2022/10/05 10:40:22;;;;;;;2.13;1.65;;;;;22.10;94508.00;;;;7388739;19;20175;-82
2022/10/05 10:43:39;;;;;;;2.30;1.58;;;;;22.10;94509.00;;;;7391578;19;20208;-83
2022/10/05 10:46:19;;;;;;;2.65;1.65;;;;;22.20;94508.00;;;;7389474;19;20143;-83
2022/10/05 10:49:12;;;;;;;3.38;1.67;;;;;21.80;94507.00;;;;7392482;19;20161;-81
2022/10/05 10:52:05;;;;;;;3.63;1.77;;;;;21.70;94506.00;;;;7388569;19;20211;-83
2022/10/05 10:55:20;;;;;;;2.00;1.73;;;;;21.80;94509.00;;;;7391925;19;20481;-84
2022/10/05 10:58:02;;;;;;;3.50;1.73;;;;;22.10;94500.00;;;;7391644;19;20196;-83
2022/10/05 11:00:53;;;;;;;2.00;1.80;;;;;22.30;94504.00;;;;7390045;19;20201;-83
2022/10/05 11:03:30;;;;;;;3.45;2.10;;;;;22.30;94507.00;;;;7391688;19;20151;-82
2022/10/05 11:06:30;;;;;;;3.75;1.85;;;;;22.60;94505.00;;;;7387338;19;20209;-82
2022/10/05 11:09:13;;;;;;;2.90;1.70;;;;;22.50;94509.00;;;;7392256;19;20137;-82
2022/10/05 11:12:13;;;;;;;5.07;2.20;;;;;22.60;94505.00;;;;7393015;19;20608;-81
2022/10/05 11:15:03;;;;;;;3.97;2.03;;;;;22.80;94496.00;;;;7390810;19;20148;-80
2022/10/05 11:18:06;;;;;;;3.03;1.88;;;;;22.90;94500.00;;;;7392148;19;20438;-79
2022/10/05 11:20:49;;;;;;;3.67;1.73;;;;;23.00;94490.00;;;;7389725;19;20490;-79
2022/10/05 11:23:48;;;;;;;2.38;1.77;;;;;22.90;94493.00;;;;7394507;19;20142;-79
2022/10/05 11:26:40;;;;;;;1.75;1.27;;;;;23.20;94485.00;;;;7383733;19;20159;-79
2022/10/05 11:29:29;;;;;;;3.83;1.30;;;;;23.70;94482.00;;;;7395620;19;20128;-81
2022/10/05 11:32:13;;;;;;;1.45;1.20;;;;;23.70;94493.00;;;;7395653;19;20227;-79
2022/10/05 11:35:30;;;;;;;2.55;1.30;;;;;23.70;94495.00;;;;7389237;19;20132;-78
2022/10/05 11:38:19;;;;;;;4.07;1.35;;;;;23.70;94480.00;;;;7392560;19;20142;-80
2022/10/05 11:41:21;;;;;;;2.47;1.30;;;;;23.80;94481.00;;;;7392787;19;20148;-81
2022/10/05 11:44:46;;;;;;;1.77;1.33;;;;;23.50;94488.00;;;;7399748;19;20161;-79
2022/10/05 11:47:30;;;;;;;2.78;1.40;;;;;23.80;94479.00;;;;7396969;19;20152;-83
2022/10/05 11:50:21;;;;;;;2.70;1.13;;;;;23.80;94484.00;;;;7395316;19;20136;-80
2022/10/05 11:53:07;;;;;;;1.00;1.00;;;;;23.80;94472.00;;;;7398075;19;20141;-78
2022/10/05 11:55:59;;;;;;;1.15;1.05;;;;;23.90;94471.00;;;;7399414;19;20616;-79
2022/10/05 11:58:56;;;;;;;3.60;1.20;;;;;24.20;94470.00;;;;7390859;19;20152;-79
2022/10/05 12:02:04;;;;;;;2.08;1.13;;;;;24.60;94465.00;;;;7397147;19;20601;-79
2022/10/05 12:04:57;;;;;;;1.20;1.10;;;;;24.90;94474.00;;;;7396000;19;20145;-78
2022/10/05 12:07:45;;;;;;;2.40;1.58;;;;;25.20;94476.00;;;;7396606;19;20159;-82
2022/10/05 12:10:30;;;;;;;3.00;1.30;;;;;25.40;94473.00;;;;7395531;19;20597;-81
2022/10/05 12:13:03;;;;;;;4.40;1.15;;;;;25.30;94474.00;;;;7394465;19;20461;-80
2022/10/05 12:15:49;;;;;;;1.30;1.20;;;;;25.20;94463.00;;;;7395089;19;20140;-78
2022/10/05 12:18:38;;;;;;;1.20;1.10;;;;;25.70;94461.00;;;;7394023;19;20151;-77
2022/10/05 12:21:37;;;;;;;3.13;1.20;;;;;26.00;94463.00;;;;7397993;19;20473;-81
2022/10/05 12:24:12;;;;;;;1.40;1.30;;;;;26.10;94459.00;;;;7394800;19;20125;-76
2022/10/05 12:27:02;;;;;;;1.35;1.20;;;;;26.40;94464.00;;;;7395599;19;20723;-78
2022/10/05 12:29:37;;;;;;;2.35;1.05;;;;;26.00;94452.00;;;;7397339;19;20163;-79
2022/10/05 12:32:28;;;;;;;3.38;1.40;;;;;25.60;94474.00;;;;7398351;19;20132;-78
2022/10/05 12:35:10;;;;;;;1.30;1.20;;;;;25.30;94462.00;;;;7395605;19;20133;-77
2022/10/05 12:38:43;;;;;;;1.88;1.30;;;;;25.20;94471.00;;;;7392995;19;20128;-77
2022/10/05 12:41:27;;;;;;;2.85;1.20;;;;;25.10;94470.00;;;;7393052;19;20722;-79
2022/10/05 12:44:41;;;;;;;1.42;1.10;;;;;24.80;94467.00;;;;7392675;19;20144;-78
2022/10/05 12:47:28;;;;;;;1.38;1.20;;;;;24.50;94469.00;;;;7395433;19;20905;-78
2022/10/05 12:50:38;;;;;;;1.30;1.20;;;;;24.50;94466.00;;;;7395218;19;20616;-77
2022/10/05 12:53:16;;;;;;;2.38;1.30;;;;;24.30;94470.00;;;;7392349;19;20148;-77
2022/10/05 12:56:17;;;;;;;3.03;1.27;;;;;24.20;94466.00;;;;7397444;19;20157;-79
2022/10/05 12:59:03;;;;;;;4.75;1.30;;;;;24.10;94472.00;;;;7394573;19;20501;-78
2022/10/05 13:01:45;;;;;;;1.48;1.30;;;;;24.30;94462.00;;;;7396869;19;20139;-78
2022/10/05 13:04:31;;;;;;;2.42;1.10;;;;;24.20;94464.00;;;;7394751;19;20124;-80
2022/10/05 13:07:23;;;;;;;3.28;1.30;;;;;24.00;94462.00;;;;7396223;19;20167;-78
2022/10/05 13:10:11;;;;;;;2.78;1.60;;;;;24.00;94459.00;;;;7396445;19;20465;-78
2022/10/05 13:12:48;;;;;;;1.63;0.93;;;;;23.90;94469.00;;;;7392722;19;20573;-78
2022/10/05 13:15:36;;;;;;;1.15;1.05;;;;;23.70;94459.00;;;;7393372;19;20164;-80
2022/10/05 13:18:36;;;;;;;2.03;1.55;;;;;23.90;94475.00;;;;7394817;19;20175;-80
2022/10/05 13:21:11;;;;;;;1.23;1.10;;;;;23.50;94467.00;;;;7395698;19;20155;-78
2022/10/05 13:23:51;;;;;;;1.80;1.20;;;;;23.20;94462.00;;;;7396657;19;20160;-80
2022/10/05 13:26:32;;;;;;;2.25;1.10;;;;;23.30;94461.00;;;;7395476;19;20139;-81
2022/10/05 13:29:36;;;;;;;2.85;1.38;;;;;23.20;94474.00;;;;7394854;19;20148;-79
2022/10/05 13:32:18;;;;;;;1.92;1.27;;;;;23.20;94471.00;;;;7392666;19;20148;-79
2022/10/05 13:35:05;;;;;;;1.45;1.23;;;;;23.40;94463.00;;;;7396201;19;20767;-80
2022/10/05 13:38:00;;;;;;;1.88;1.10;;;;;23.30;94467.00;;;;7394383;19;20140;-79
2022/10/05 13:41:04;;;;;;;4.07;1.35;;;;;23.30;94472.00;;;;7391634;19;20157;-79
2022/10/05 13:44:29;;;;;;;9.38;2.28;;;;;23.30;94470.00;;;;7395246;19;20138;-78
2022/10/05 13:47:31;;;;;;;4.22;1.98;;;;;23.20;94474.00;;;;7392789;19;20143;-79
2022/10/05 13:50:20;;;;;;;3.28;1.45;;;;;23.20;94482.00;;;;7389289;19;20143;-78
2022/10/05 13:53:11;;;;;;;1.77;1.20;;;;;22.90;94478.00;;;;7394283;19;20137;-79
2022/10/05 13:55:53;;;;;;;1.45;1.30;;;;;22.80;94473.00;;;;7392868;19;20211;-78
2022/10/05 13:58:42;;;;;;;1.30;1.20;;;;;22.90;94473.00;;;;7385573;19;20160;-78
2022/10/05 14:01:41;;;;;;;1.70;1.00;;;;;23.00;94472.00;;;;7388252;19;20735;-79
2022/10/05 14:04:20;;;;;;;1.85;1.15;;;;;23.00;94474.00;;;;7386308;19;20631;-79
2022/10/05 14:06:48;;;;;;;1.20;1.10;;;;;22.80;94475.00;;;;7388142;19;20611;-78
2022/10/05 14:09:33;;;;;;;2.35;1.00;;;;;22.70;94475.00;;;;7389343;19;20132;-79
2022/10/05 14:12:04;;;;;;;1.15;1.02;;;;;22.60;94470.00;;;;7387371;19;20162;-79
2022/10/05 14:14:50;;;;;;;2.53;1.20;;;;;22.70;94467.00;;;;7390226;19;20133;-80
2022/10/05 14:17:38;;;;;;;1.20;1.10;;;;;22.40;94471.00;;;;7393916;19;20667;-78
2022/10/05 14:20:22;;;;;;;1.42;1.13;;;;;22.30;94465.00;;;;7390030;19;20576;-77
2022/10/05 14:23:08;;;;;;;1.02;0.93;;;;;22.40;94463.00;;;;7389843;19;20149;-79
2022/10/05 14:25:55;;;;;;;2.20;1.05;;;;;22.50;94460.00;;;;7392725;19;20145;-80
2022/10/05 14:28:37;;;;;;;2.10;1.20;;;;;22.50;94461.00;;;;7391689;19;20464;-79
2022/10/05 14:31:26;;;;;;;1.80;1.20;;;;;22.60;94454.00;;;;7391716;19;20125;-79
2022/10/05 14:33:54;;;;;;;2.97;1.23;;;;;22.60;94458.00;;;;7392032;19;20144;-80
2022/10/05 14:36:39;;;;;;;2.30;1.15;;;;;22.40;94453.00;;;;7391553;19;20235;-80
2022/10/05 14:39:18;;;;;;;2.22;0.80;;;;;22.30;94457.00;;;;7389772;19;20162;-78
2022/10/05 14:42:15;;;;;;;3.70;0.90;;;;;22.20;94455.00;;;;7393761;19;20131;-78
2022/10/05 14:44:45;;;;;;;1.15;0.88;;;;;22.30;94464.00;;;;7389410;19;20137;-79
2022/10/05 14:47:26;;;;;;;8.50;2.45;;;;;22.50;94457.00;;;;7389950;19;20614;-79
2022/10/05 14:50:13;;;;;;;2.05;1.20;;;;;22.60;94446.00;;;;7392433;19;20162;-78
2022/10/05 14:53:11;;;;;;;1.10;1.02;;;;;22.60;94462.00;;;;7391871;19;20490;-78
2022/10/05 14:55:44;;;;;;;2.72;0.93;;;;;22.40;94463.00;;;;7391592;19;20147;-78
2022/10/05 14:58:26;;;;;;;1.70;1.10;;;;;22.30;94469.00;;;;7389150;19;20611;-76
2022/10/05 15:01:13;;;;;;;1.33;1.00;;;;;22.00;94464.00;;;;7391527;19;20133;-79
2022/10/05 15:04:01;;;;;;;4.20;1.25;;;;;21.90;94468.00;;;;7397772;19;20137;-79
2022/10/05 15:06:37;;;;;;;1.40;1.05;;;;;21.70;94471.00;;;;7396664;19;20182;-79
2022/10/05 15:09:31;;;;;;;2.28;1.08;;;;;21.80;94460.00;;;;7398459;19;20148;-79
2022/10/05 15:12:01;;;;;;;1.10;1.00;;;;;21.80;94460.00;;;;7395769;19;20140;-79
2022/10/05 15:14:42;;;;;;;4.10;1.10;;;;;21.80;94464.00;;;;7399189;19;20160;-81
2022/10/05 15:17:32;;;;;;;3.80;1.08;;;;;21.70;94473.00;;;;7398823;19;20131;-79
2022/10/05 15:20:37;;;;;;;2.30;1.10;;;;;21.70;94466.00;;;;7392693;19;20133;-79
2022/10/05 15:23:24;;;;;;;0.90;0.90;;;;;21.70;94462.00;;;;7398759;19;20154;-80
2022/10/05 15:26:37;;;;;;;5.28;1.25;;;;;21.60;94470.00;;;;7395105;19;20169;-79
2022/10/05 15:29:15;;;;;;;2.58;1.23;;;;;21.60;94465.00;;;;7396629;19;20124;-79
2022/10/05 15:32:23;;;;;;;1.67;0.90;;;;;21.40;94466.00;;;;7397555;19;20173;-79
2022/10/05 15:35:19;;;;;;;1.10;0.98;;;;;21.20;94470.00;;;;7395078;19;20622;-79
2022/10/05 15:38:17;;;;;;;1.05;0.98;;;;;21.00;94473.00;;;;7397362;19;20174;-78
2022/10/05 15:41:11;;;;;;;3.55;1.23;;;;;20.90;94479.00;;;;7392249;19;20219;-79
2022/10/05 15:43:52;;;;;;;1.65;1.00;;;;;20.60;94475.00;;;;7398369;19;20570;-79
2022/10/05 15:46:45;;;;;;;1.00;0.90;;;;;20.30;94480.00;;;;7394940;19;20144;-79
2022/10/05 15:49:44;;;;;;;1.40;1.20;;;;;20.10;94479.00;;;;7390871;19;20669;-79
2022/10/05 15:52:33;;;;;;;2.75;1.00;;;;;19.90;94473.00;;;;7393605;19;20142;-79
2022/10/05 15:55:28;;;;;;;1.70;1.10;;;;;19.50;94483.00;;;;7396558;19;20738;-80
2022/10/05 15:58:10;;;;;;;5.88;2.15;;;;;19.40;94496.00;;;;7397545;19;20151;-79
2022/10/05 16:00:50;;;;;;;7.10;1.30;;;;;19.60;94497.00;;;;7394511;19;20156;-78
2022/10/05 16:03:36;;;;;;;4.63;1.20;;;;;19.60;94491.00;;;;7397296;19;20161;-81
2022/10/05 16:09:35;;;;;;;2.25;1.30;;;;;19.30;94487.00;;;;7397557;19;20124;-80
2022/10/05 16:12:14;;;;;;;7.25;1.52;;;;;19.40;94488.00;;;;7393226;19;20180;-79
2022/10/05 16:14:53;;;;;;;2.25;0.93;;;;;19.20;94496.00;;;;7393812;19;20133;-82
2022/10/05 16:17:32;;;;;;;1.23;1.00;;;;;19.00;94499.00;;;;7391071;19;20125;-77
2022/10/05 16:20:21;;;;;;;4.47;1.13;;;;;19.00;94502.00;;;;7391250;19;20145;-78
2022/10/05 16:23:12;;;;;;;9.57;2.00;;;;;18.80;94501.00;;;;7389054;19;20132;-77
2022/10/05 16:25:58;;;;;;;10.07;1.95;;;;;18.80;94507.00;;;;7392080;19;20125;-79
2022/10/05 16:29:05;;;;;;;18.67;3.78;;;;;18.60;94503.00;;;;7388318;19;20141;-78
2022/10/05 16:32:14;;;;;;;2.22;1.10;;;;;18.40;94500.00;;;;7389540;19;20200;-77
2022/10/05 16:35:13;;;;;;;2.05;1.25;;;;;18.20;94512.00;;;;7388891;19;20604;-79
2022/10/05 16:37:51;;;;;;;8.90;1.42;;;;;18.00;94515.00;;;;7388276;19;20487;-79
2022/10/05 16:41:28;;;;;;;16.13;2.35;;;;;17.40;94516.00;;;;7387142;19;20153;-79
2022/10/05 16:44:14;;;;;;;5.32;1.55;;;;;17.10;94526.00;;;;7386507;19;20140;-79
2022/10/05 16:46:57;;;;;;;1.23;1.13;;;;;17.10;94518.00;;;;7389802;19;20131;-79
2022/10/05 16:49:45;;;;;;;1.55;1.33;;;;;16.80;94517.00;;;;7389625;19;20151;-79
2022/10/05 16:52:22;;;;;;;3.83;1.30;;;;;16.40;94526.00;;;;7390247;19;20135;-78
2022/10/05 16:55:03;;;;;;;30.45;6.10;;;;;16.40;94519.00;;;;7388604;19;20136;-79
2022/10/05 16:57:42;;;;;;;6.40;1.90;;;;;16.20;94532.00;;;;7387169;19;20136;-80
2022/10/05 17:00:20;;;;;;;2.55;1.10;;;;;15.80;94521.00;;;;7386069;19;20144;-77
2022/10/05 17:03:28;;;;;;;25.08;5.13;;;;;15.80;94518.00;;;;7388495;19;20208;-79
2022/10/05 17:06:11;;;;;;;5.57;1.45;;;;;15.80;94528.00;;;;7387772;19;20203;-79
2022/10/05 17:08:44;;;;;;;2.88;1.20;;;;;15.60;94531.00;;;;7388651;19;20141;-78
2022/10/05 17:11:18;;;;;;;7.90;3.53;;;;;15.60;94530.00;;;;7388613;19;20155;-79
2022/10/05 17:14:19;;;;;;;7.63;2.55;;;;;15.60;94535.00;;;;7386164;19;20172;-79
2022/10/05 17:17:16;;;;;;;4.78;2.05;;;;;15.50;94529.00;;;;7391205;19;20129;-80
2022/10/05 17:19:58;;;;;;;5.78;1.40;;;;;15.20;94534.00;;;;7390964;19;20148;-79
2022/10/05 17:23:20;;;;;;;2.88;1.30;;;;;15.30;94531.00;;;;7390114;19;20169;-79
2022/10/05 17:26:37;;;;;;;4.35;1.70;;;;;14.90;94540.00;;;;7393085;19;20505;-79
2022/10/05 17:29:21;;;;;;;3.33;1.40;;;;;15.10;94534.00;;;;7387778;19;20141;-79
2022/10/05 17:32:00;;;;;;;5.35;1.25;;;;;15.40;94538.00;;;;7387318;19;20154;-79
2022/10/05 17:34:33;;;;;;;2.95;1.20;;;;;15.70;94542.00;;;;7387174;19;20141;-78
2022/10/05 17:37:34;;;;;;;1.20;1.10;;;;;15.70;94542.00;;;;7387086;19;20137;-78
2022/10/05 17:40:33;;;;;;;3.28;1.52;;;;;15.50;94534.00;;;;7386196;19;20169;-78
2022/10/05 17:43:14;;;;;;;3.30;1.40;;;;;15.70;94544.00;;;;7387867;19;20192;-78
2022/10/05 17:45:42;;;;;;;1.52;1.30;;;;;15.90;94544.00;;;;7388036;19;20615;-79
2022/10/05 17:49:02;;;;;;;1.52;1.15;;;;;16.00;94543.00;;;;7386982;19;20128;-79
2022/10/05 17:57:22;;;;;;;3.00;1.40;;;;;16.30;94554.00;;;;7387543;19;20128;-79
2022/10/05 18:00:03;;;;;;;2.08;1.15;;;;;15.90;94555.00;;;;7386232;19;20221;-79
2022/10/05 18:02:36;;;;;;;3.03;1.27;;;;;15.90;94561.00;;;;7387678;19;20135;-79
2022/10/05 18:05:20;;;;;;;2.53;1.40;;;;;15.90;94565.00;;;;7386939;19;20125;-79
2022/10/05 18:08:11;;;;;;;3.22;1.35;;;;;15.80;94564.00;;;;7387081;19;20129;-78
2022/10/05 18:11:10;;;;;;;2.35;1.15;;;;;16.10;94562.00;;;;7386878;19;20141;-78
2022/10/05 18:13:49;;;;;;;2.55;1.35;;;;;16.10;94566.00;;;;7383830;19;20168;-78
2022/10/05 18:16:58;;;;;;;1.52;1.20;;;;;16.10;94567.00;;;;7386335;19;20148;-78
2022/10/05 18:19:30;;;;;;;2.35;1.45;;;;;16.30;94568.00;;;;7385576;19;20200;-79
2022/10/05 18:22:15;;;;;;;3.15;1.13;;;;;16.30;94566.00;;;;7385979;19;20141;-78
2022/10/05 18:25:09;;;;;;;1.60;1.17;;;;;16.40;94572.00;;;;7385006;19;20968;-79
2022/10/05 18:27:59;;;;;;;2.35;1.40;;;;;16.30;94572.00;;;;7386495;19;20142;-78
2022/10/05 18:30:35;;;;;;;2.00;1.23;;;;;16.20;94579.00;;;;7384424;19;20172;-78
2022/10/05 18:33:39;;;;;;;4.78;1.48;;;;;16.30;94588.00;;;;7385287;19;20188;-78
2022/10/05 18:36:33;;;;;;;4.63;1.45;;;;;16.00;94592.00;;;;7384997;19;20147;-78
2022/10/05 18:39:33;;;;;;;2.17;1.25;;;;;16.00;94594.00;;;;7382485;19;20560;-79
2022/10/05 18:42:12;;;;;;;2.40;1.30;;;;;16.10;94595.00;;;;7384446;19;20141;-81
2022/10/05 18:44:52;;;;;;;1.63;1.30;;;;;16.10;94602.00;;;;7383458;19;20164;-78
2022/10/05 18:47:46;;;;;;;1.63;1.30;;;;;16.00;94603.00;;;;7388407;19;20216;-78
2022/10/05 18:50:41;;;;;;;3.78;1.42;;;;;15.90;94604.00;;;;7391101;19;20133;-79
2022/10/05 18:53:33;;;;;;;2.38;1.30;;;;;15.90;94613.00;;;;7387259;19;20148;-78
2022/10/05 18:56:16;;;;;;;1.65;1.40;;;;;15.80;94615.00;;;;7386859;19;20144;-78
2022/10/05 18:59:06;;;;;;;3.45;1.10;;;;;15.70;94617.00;;;;7385730;19;20200;-78
2022/10/05 19:01:48;;;;;;;8.20;2.08;;;;;15.50;94625.00;;;;7384706;19;20129;-79
2022/10/05 19:04:49;;;;;;;3.72;1.38;;;;;15.30;94630.00;;;;7384839;19;20188;-78
2022/10/05 19:07:32;;;;;;;4.05;0.93;;;;;15.30;94633.00;;;;7384190;19;20596;-77
2022/10/05 19:10:27;;;;;;;2.55;1.30;;;;;15.40;94630.00;;;;7383697;19;20239;-77
2022/10/05 19:13:16;;;;;;;4.32;1.58;;;;;15.30;94639.00;;;;7382930;19;20159;-79
2022/10/05 19:15:56;;;;;;;2.45;1.25;;;;;14.90;94652.00;;;;7383109;19;20629;-78